sensor_id;sensor_type;location;lat;lon;timestamp;P1;durP1;ratioP1;P2;durP2;ratioP2
7997;SDS011;4044;49.814;7.828;2022-10-26T00:00:41;8.80;;;4.67;;
7997;SDS011;4044;49.814;7.828;2022-10-26T00:03:06;5.00;;;4.13;;
7997;SDS011;4044;49.814;7.828;2022-10-26T00:05:32;5.37;;;4.00;;
7997;SDS011;4044;49.814;7.828;2022-10-26T00:07:58;5.17;;;4.03;;
7997;SDS011;4044;49.814;7.828;2022-10-26T00:10:24;5.77;;;4.20;;
7997;SDS011;4044;49.814;7.828;2022-10-26T00:12:50;8.50;;;4.70;;
7997;SDS011;4044;49.814;7.828;2022-10-26T00:15:16;5.63;;;3.80;;
7997;SDS011;4044;49.814;7.828;2022-10-26T00:17:43;5.00;;;4.13;;
7997;SDS011;4044;49.814;7.828;2022-10-26T00:20:09;8.03;;;4.03;;
7997;SDS011;4044;49.814;7.828;2022-10-26T00:22:35;14.10;;;4.00;;
7997;SDS011;4044;49.814;7.828;2022-10-26T00:25:00;5.83;;;3.87;;
7997;SDS011;4044;49.814;7.828;2022-10-26T00:27:26;8.17;;;4.73;;
7997;SDS011;4044;49.814;7.828;2022-10-26T00:29:51;7.17;;;4.90;;
7997;SDS011;4044;49.814;7.828;2022-10-26T00:32:17;8.47;;;4.90;;
7997;SDS011;4044;49.814;7.828;2022-10-26T00:34:42;5.90;;;4.47;;
7997;SDS011;4044;49.814;7.828;2022-10-26T00:37:08;8.73;;;4.10;;
7997;SDS011;4044;49.814;7.828;2022-10-26T00:39:33;8.63;;;4.43;;
7997;SDS011;4044;49.814;7.828;2022-10-26T00:41:59;7.87;;;4.53;;
7997;SDS011;4044;49.814;7.828;2022-10-26T00:47:26;7.90;;;4.47;;
7997;SDS011;4044;49.814;7.828;2022-10-26T00:49:58;7.70;;;4.20;;
7997;SDS011;4044;49.814;7.828;2022-10-26T00:52:28;5.20;;;4.50;;
7997;SDS011;4044;49.814;7.828;2022-10-26T00:54:54;9.53;;;4.63;;
7997;SDS011;4044;49.814;7.828;2022-10-26T00:57:20;7.20;;;4.30;;
7997;SDS011;4044;49.814;7.828;2022-10-26T00:59:46;9.33;;;5.03;;
7997;SDS011;4044;49.814;7.828;2022-10-26T01:02:14;12.10;;;5.30;;
7997;SDS011;4044;49.814;7.828;2022-10-26T01:04:40;5.17;;;4.50;;
7997;SDS011;4044;49.814;7.828;2022-10-26T01:07:05;7.23;;;4.80;;
7997;SDS011;4044;49.814;7.828;2022-10-26T01:09:32;6.73;;;4.87;;
7997;SDS011;4044;49.814;7.828;2022-10-26T01:11:59;9.77;;;4.73;;
7997;SDS011;4044;49.814;7.828;2022-10-26T01:14:25;10.87;;;4.80;;
7997;SDS011;4044;49.814;7.828;2022-10-26T01:30:20;5.63;;;5.00;;
7997;SDS011;4044;49.814;7.828;2022-10-26T01:35:41;7.83;;;5.00;;
7997;SDS011;4044;49.814;7.828;2022-10-26T01:38:21;9.50;;;4.67;;
7997;SDS011;4044;49.814;7.828;2022-10-26T01:40:53;8.13;;;4.80;;
7997;SDS011;4044;49.814;7.828;2022-10-26T01:43:20;8.17;;;4.70;;
7997;SDS011;4044;49.814;7.828;2022-10-26T01:45:46;8.30;;;4.60;;
7997;SDS011;4044;49.814;7.828;2022-10-26T01:48:15;8.87;;;4.83;;
7997;SDS011;4044;49.814;7.828;2022-10-26T01:50:45;6.13;;;4.17;;
7997;SDS011;4044;49.814;7.828;2022-10-26T01:53:13;5.77;;;4.50;;
7997;SDS011;4044;49.814;7.828;2022-10-26T01:55:47;4.90;;;4.37;;
7997;SDS011;4044;49.814;7.828;2022-10-26T01:58:30;6.13;;;4.30;;
7997;SDS011;4044;49.814;7.828;2022-10-26T02:01:15;7.07;;;4.47;;
7997;SDS011;4044;49.814;7.828;2022-10-26T02:04:06;6.90;;;4.83;;
7997;SDS011;4044;49.814;7.828;2022-10-26T02:07:00;8.97;;;4.70;;
7997;SDS011;4044;49.814;7.828;2022-10-26T02:09:45;9.03;;;4.50;;
7997;SDS011;4044;49.814;7.828;2022-10-26T02:12:20;9.77;;;4.80;;
7997;SDS011;4044;49.814;7.828;2022-10-26T02:15:00;5.73;;;4.73;;
7997;SDS011;4044;49.814;7.828;2022-10-26T02:17:33;8.20;;;5.07;;
7997;SDS011;4044;49.814;7.828;2022-10-26T02:20:06;5.63;;;4.93;;
7997;SDS011;4044;49.814;7.828;2022-10-26T02:22:39;10.23;;;4.93;;
7997;SDS011;4044;49.814;7.828;2022-10-26T02:25:10;7.20;;;5.03;;
7997;SDS011;4044;49.814;7.828;2022-10-26T02:27:44;12.83;;;5.00;;
7997;SDS011;4044;49.814;7.828;2022-10-26T02:30:14;5.57;;;5.07;;
7997;SDS011;4044;49.814;7.828;2022-10-26T02:32:42;9.03;;;4.80;;
7997;SDS011;4044;49.814;7.828;2022-10-26T02:35:12;10.27;;;5.43;;
7997;SDS011;4044;49.814;7.828;2022-10-26T02:37:39;12.60;;;4.63;;
7997;SDS011;4044;49.814;7.828;2022-10-26T02:40:07;8.53;;;5.10;;
7997;SDS011;4044;49.814;7.828;2022-10-26T02:42:38;5.87;;;5.20;;
7997;SDS011;4044;49.814;7.828;2022-10-26T02:45:06;9.23;;;5.40;;
7997;SDS011;4044;49.814;7.828;2022-10-26T02:47:35;8.90;;;5.43;;
7997;SDS011;4044;49.814;7.828;2022-10-26T02:50:01;7.30;;;5.00;;
7997;SDS011;4044;49.814;7.828;2022-10-26T02:52:40;7.20;;;4.60;;
7997;SDS011;4044;49.814;7.828;2022-10-26T02:57:46;9.23;;;5.30;;
7997;SDS011;4044;49.814;7.828;2022-10-26T03:00:16;8.97;;;5.17;;
7997;SDS011;4044;49.814;7.828;2022-10-26T03:02:50;7.17;;;5.17;;
7997;SDS011;4044;49.814;7.828;2022-10-26T03:05:18;8.47;;;5.00;;
7997;SDS011;4044;49.814;7.828;2022-10-26T03:07:52;9.40;;;5.27;;
7997;SDS011;4044;49.814;7.828;2022-10-26T03:10:18;7.50;;;5.30;;
7997;SDS011;4044;49.814;7.828;2022-10-26T03:12:44;7.53;;;5.00;;
7997;SDS011;4044;49.814;7.828;2022-10-26T03:15:10;8.33;;;4.90;;
7997;SDS011;4044;49.814;7.828;2022-10-26T03:17:36;8.83;;;5.27;;
7997;SDS011;4044;49.814;7.828;2022-10-26T03:20:02;6.33;;;4.70;;
7997;SDS011;4044;49.814;7.828;2022-10-26T03:22:28;11.60;;;5.27;;
7997;SDS011;4044;49.814;7.828;2022-10-26T03:24:54;6.43;;;4.90;;
7997;SDS011;4044;49.814;7.828;2022-10-26T03:27:19;8.50;;;4.77;;
7997;SDS011;4044;49.814;7.828;2022-10-26T03:29:45;9.27;;;4.87;;
7997;SDS011;4044;49.814;7.828;2022-10-26T03:32:10;8.17;;;5.33;;
7997;SDS011;4044;49.814;7.828;2022-10-26T03:34:36;7.83;;;5.27;;
7997;SDS011;4044;49.814;7.828;2022-10-26T03:37:02;7.07;;;5.30;;
7997;SDS011;4044;49.814;7.828;2022-10-26T03:39:27;6.97;;;5.77;;
7997;SDS011;4044;49.814;7.828;2022-10-26T03:41:53;8.97;;;5.03;;
7997;SDS011;4044;49.814;7.828;2022-10-26T03:44:19;17.90;;;5.97;;
7997;SDS011;4044;49.814;7.828;2022-10-26T03:46:45;6.40;;;5.20;;
7997;SDS011;4044;49.814;7.828;2022-10-26T03:49:11;6.90;;;5.10;;
7997;SDS011;4044;49.814;7.828;2022-10-26T03:51:36;11.33;;;5.73;;
7997;SDS011;4044;49.814;7.828;2022-10-26T03:54:02;7.60;;;5.40;;
7997;SDS011;4044;49.814;7.828;2022-10-26T03:56:28;9.83;;;5.53;;
7997;SDS011;4044;49.814;7.828;2022-10-26T03:58:54;5.83;;;5.23;;
7997;SDS011;4044;49.814;7.828;2022-10-26T04:01:20;9.13;;;5.93;;
7997;SDS011;4044;49.814;7.828;2022-10-26T04:03:45;7.27;;;5.27;;
7997;SDS011;4044;49.814;7.828;2022-10-26T04:06:11;7.90;;;5.73;;
7997;SDS011;4044;49.814;7.828;2022-10-26T04:08:36;6.43;;;5.23;;
7997;SDS011;4044;49.814;7.828;2022-10-26T04:11:02;9.53;;;5.13;;
7997;SDS011;4044;49.814;7.828;2022-10-26T04:13:27;9.43;;;5.40;;
7997;SDS011;4044;49.814;7.828;2022-10-26T04:15:53;7.50;;;5.73;;
7997;SDS011;4044;49.814;7.828;2022-10-26T04:18:18;7.60;;;5.20;;
7997;SDS011;4044;49.814;7.828;2022-10-26T04:20:44;7.83;;;5.37;;
7997;SDS011;4044;49.814;7.828;2022-10-26T04:23:11;5.87;;;5.27;;
7997;SDS011;4044;49.814;7.828;2022-10-26T04:25:38;8.37;;;5.57;;
7997;SDS011;4044;49.814;7.828;2022-10-26T04:28:05;9.37;;;5.50;;
7997;SDS011;4044;49.814;7.828;2022-10-26T04:30:31;7.73;;;5.20;;
7997;SDS011;4044;49.814;7.828;2022-10-26T04:32:58;9.07;;;5.53;;
7997;SDS011;4044;49.814;7.828;2022-10-26T04:35:24;6.90;;;5.37;;
7997;SDS011;4044;49.814;7.828;2022-10-26T04:37:50;7.67;;;4.90;;
7997;SDS011;4044;49.814;7.828;2022-10-26T04:40:16;8.43;;;5.10;;
7997;SDS011;4044;49.814;7.828;2022-10-26T04:42:42;7.60;;;5.60;;
7997;SDS011;4044;49.814;7.828;2022-10-26T04:45:09;7.07;;;5.83;;
7997;SDS011;4044;49.814;7.828;2022-10-26T04:47:35;8.40;;;5.97;;
7997;SDS011;4044;49.814;7.828;2022-10-26T04:50:00;8.57;;;6.07;;
7997;SDS011;4044;49.814;7.828;2022-10-26T04:52:26;12.37;;;7.10;;
7997;SDS011;4044;49.814;7.828;2022-10-26T04:54:51;7.93;;;6.03;;
7997;SDS011;4044;49.814;7.828;2022-10-26T04:57:17;9.07;;;5.57;;
7997;SDS011;4044;49.814;7.828;2022-10-26T04:59:42;7.33;;;5.73;;
7997;SDS011;4044;49.814;7.828;2022-10-26T05:02:08;7.17;;;6.20;;
7997;SDS011;4044;49.814;7.828;2022-10-26T05:04:33;9.33;;;6.10;;
7997;SDS011;4044;49.814;7.828;2022-10-26T05:06:59;11.57;;;7.00;;
7997;SDS011;4044;49.814;7.828;2022-10-26T05:09:24;10.13;;;6.50;;
7997;SDS011;4044;49.814;7.828;2022-10-26T05:11:50;7.23;;;5.53;;
7997;SDS011;4044;49.814;7.828;2022-10-26T05:14:15;9.43;;;6.20;;
7997;SDS011;4044;49.814;7.828;2022-10-26T05:16:41;7.93;;;6.37;;
7997;SDS011;4044;49.814;7.828;2022-10-26T05:19:08;9.67;;;6.77;;
7997;SDS011;4044;49.814;7.828;2022-10-26T05:21:34;10.70;;;6.77;;
7997;SDS011;4044;49.814;7.828;2022-10-26T05:23:59;14.20;;;6.40;;
7997;SDS011;4044;49.814;7.828;2022-10-26T05:26:25;12.27;;;6.30;;
7997;SDS011;4044;49.814;7.828;2022-10-26T05:28:51;8.83;;;6.57;;
7997;SDS011;4044;49.814;7.828;2022-10-26T05:31:17;9.80;;;6.57;;
7997;SDS011;4044;49.814;7.828;2022-10-26T05:33:42;13.17;;;6.40;;
7997;SDS011;4044;49.814;7.828;2022-10-26T05:36:08;12.10;;;6.47;;
7997;SDS011;4044;49.814;7.828;2022-10-26T05:38:33;10.07;;;7.37;;
7997;SDS011;4044;49.814;7.828;2022-10-26T05:40:59;9.10;;;6.70;;
7997;SDS011;4044;49.814;7.828;2022-10-26T05:43:27;10.20;;;6.83;;
7997;SDS011;4044;49.814;7.828;2022-10-26T05:45:54;11.50;;;8.33;;
7997;SDS011;4044;49.814;7.828;2022-10-26T05:48:20;13.67;;;7.70;;
7997;SDS011;4044;49.814;7.828;2022-10-26T05:50:45;12.83;;;8.27;;
7997;SDS011;4044;49.814;7.828;2022-10-26T05:53:11;14.07;;;8.43;;
7997;SDS011;4044;49.814;7.828;2022-10-26T05:55:37;13.27;;;7.50;;
7997;SDS011;4044;49.814;7.828;2022-10-26T05:58:03;14.43;;;7.77;;
7997;SDS011;4044;49.814;7.828;2022-10-26T06:00:33;13.30;;;7.50;;
7997;SDS011;4044;49.814;7.828;2022-10-26T06:05:32;9.27;;;7.50;;
7997;SDS011;4044;49.814;7.828;2022-10-26T06:08:18;11.40;;;6.97;;
7997;SDS011;4044;49.814;7.828;2022-10-26T06:10:46;8.90;;;6.73;;
7997;SDS011;4044;49.814;7.828;2022-10-26T06:13:11;10.30;;;6.73;;
7997;SDS011;4044;49.814;7.828;2022-10-26T06:16:02;12.83;;;7.07;;
7997;SDS011;4044;49.814;7.828;2022-10-26T06:18:41;13.30;;;7.33;;
7997;SDS011;4044;49.814;7.828;2022-10-26T06:29:17;9.13;;;6.80;;
7997;SDS011;4044;49.814;7.828;2022-10-26T06:31:52;7.90;;;6.50;;
7997;SDS011;4044;49.814;7.828;2022-10-26T06:34:20;7.37;;;6.23;;
7997;SDS011;4044;49.814;7.828;2022-10-26T06:36:50;9.03;;;6.33;;
7997;SDS011;4044;49.814;7.828;2022-10-26T06:39:16;10.37;;;6.77;;
7997;SDS011;4044;49.814;7.828;2022-10-26T06:41:43;8.53;;;6.47;;
7997;SDS011;4044;49.814;7.828;2022-10-26T06:44:11;13.50;;;7.43;;
7997;SDS011;4044;49.814;7.828;2022-10-26T06:49:28;9.47;;;6.47;;
7997;SDS011;4044;49.814;7.828;2022-10-26T06:51:57;8.47;;;6.03;;
7997;SDS011;4044;49.814;7.828;2022-10-26T06:57:13;7.73;;;6.47;;
7997;SDS011;4044;49.814;7.828;2022-10-26T06:59:53;8.20;;;6.73;;
7997;SDS011;4044;49.814;7.828;2022-10-26T07:02:22;7.50;;;6.47;;
7997;SDS011;4044;49.814;7.828;2022-10-26T07:04:48;12.20;;;7.17;;
7997;SDS011;4044;49.814;7.828;2022-10-26T07:07:18;12.33;;;7.17;;
7997;SDS011;4044;49.814;7.828;2022-10-26T07:09:45;9.97;;;6.80;;
7997;SDS011;4044;49.814;7.828;2022-10-26T07:12:11;9.60;;;6.87;;
7997;SDS011;4044;49.814;7.828;2022-10-26T07:14:36;10.13;;;6.53;;
7997;SDS011;4044;49.814;7.828;2022-10-26T07:17:02;11.63;;;6.93;;
7997;SDS011;4044;49.814;7.828;2022-10-26T07:19:29;8.87;;;6.50;;
7997;SDS011;4044;49.814;7.828;2022-10-26T07:21:55;12.00;;;7.50;;
7997;SDS011;4044;49.814;7.828;2022-10-26T07:24:23;8.97;;;6.40;;
7997;SDS011;4044;49.814;7.828;2022-10-26T07:26:49;9.37;;;6.97;;
7997;SDS011;4044;49.814;7.828;2022-10-26T07:29:14;8.43;;;7.33;;
7997;SDS011;4044;49.814;7.828;2022-10-26T07:31:42;9.80;;;6.40;;
7997;SDS011;4044;49.814;7.828;2022-10-26T07:34:07;9.13;;;6.90;;
7997;SDS011;4044;49.814;7.828;2022-10-26T07:36:33;10.07;;;7.00;;
7997;SDS011;4044;49.814;7.828;2022-10-26T07:39:00;9.40;;;7.00;;
7997;SDS011;4044;49.814;7.828;2022-10-26T07:41:27;11.83;;;7.17;;
7997;SDS011;4044;49.814;7.828;2022-10-26T07:43:52;9.30;;;6.77;;
7997;SDS011;4044;49.814;7.828;2022-10-26T07:46:18;7.23;;;6.63;;
7997;SDS011;4044;49.814;7.828;2022-10-26T07:48:43;10.80;;;7.07;;
7997;SDS011;4044;49.814;7.828;2022-10-26T07:51:09;8.63;;;6.80;;
7997;SDS011;4044;49.814;7.828;2022-10-26T07:53:34;9.33;;;7.40;;
7997;SDS011;4044;49.814;7.828;2022-10-26T07:56:00;11.00;;;7.77;;
7997;SDS011;4044;49.814;7.828;2022-10-26T07:58:25;11.03;;;7.60;;
7997;SDS011;4044;49.814;7.828;2022-10-26T08:00:52;11.00;;;8.07;;
7997;SDS011;4044;49.814;7.828;2022-10-26T08:03:19;12.63;;;8.17;;
7997;SDS011;4044;49.814;7.828;2022-10-26T08:05:45;10.00;;;8.43;;
7997;SDS011;4044;49.814;7.828;2022-10-26T08:08:15;11.93;;;7.90;;
7997;SDS011;4044;49.814;7.828;2022-10-26T08:10:43;10.90;;;8.37;;
7997;SDS011;4044;49.814;7.828;2022-10-26T08:13:09;9.97;;;8.10;;
7997;SDS011;4044;49.814;7.828;2022-10-26T08:15:35;12.00;;;8.40;;
7997;SDS011;4044;49.814;7.828;2022-10-26T08:18:00;11.17;;;7.43;;
7997;SDS011;4044;49.814;7.828;2022-10-26T08:20:26;9.90;;;7.73;;
7997;SDS011;4044;49.814;7.828;2022-10-26T08:22:51;8.80;;;7.90;;
7997;SDS011;4044;49.814;7.828;2022-10-26T08:25:20;10.13;;;8.20;;
7997;SDS011;4044;49.814;7.828;2022-10-26T08:27:45;9.80;;;8.43;;
7997;SDS011;4044;49.814;7.828;2022-10-26T08:30:11;10.63;;;7.50;;
7997;SDS011;4044;49.814;7.828;2022-10-26T08:32:37;11.83;;;8.20;;
7997;SDS011;4044;49.814;7.828;2022-10-26T08:35:02;10.07;;;8.67;;
7997;SDS011;4044;49.814;7.828;2022-10-26T08:37:28;9.87;;;8.47;;
7997;SDS011;4044;49.814;7.828;2022-10-26T08:39:54;12.77;;;9.23;;
7997;SDS011;4044;49.814;7.828;2022-10-26T08:42:32;12.83;;;9.30;;
7997;SDS011;4044;49.814;7.828;2022-10-26T08:45:11;14.20;;;9.65;;
7997;SDS011;4044;49.814;7.828;2022-10-26T08:47:49;10.37;;;9.07;;
7997;SDS011;4044;49.814;7.828;2022-10-26T08:50:32;12.07;;;8.60;;
7997;SDS011;4044;49.814;7.828;2022-10-26T08:53:12;9.90;;;8.90;;
7997;SDS011;4044;49.814;7.828;2022-10-26T08:56:19;11.07;;;9.27;;
7997;SDS011;4044;49.814;7.828;2022-10-26T09:01:53;11.50;;;9.60;;
7997;SDS011;4044;49.814;7.828;2022-10-26T09:04:21;10.03;;;8.83;;
7997;SDS011;4044;49.814;7.828;2022-10-26T09:09:44;12.25;;;8.85;;
7997;SDS011;4044;49.814;7.828;2022-10-26T09:15:12;11.87;;;8.13;;
7997;SDS011;4044;49.814;7.828;2022-10-26T09:23:34;9.38;;;7.45;;
7997;SDS011;4044;49.814;7.828;2022-10-26T09:26:14;18.77;;;8.27;;
7997;SDS011;4044;49.814;7.828;2022-10-26T09:28:47;9.90;;;6.72;;
7997;SDS011;4044;49.814;7.828;2022-10-26T09:31:14;7.87;;;6.17;;
7997;SDS011;4044;49.814;7.828;2022-10-26T09:33:41;8.50;;;6.70;;
7997;SDS011;4044;49.814;7.828;2022-10-26T09:36:16;7.07;;;6.45;;
7997;SDS011;4044;49.814;7.828;2022-10-26T09:38:46;9.25;;;6.60;;
7997;SDS011;4044;49.814;7.828;2022-10-26T09:41:21;6.55;;;5.93;;
7997;SDS011;4044;49.814;7.828;2022-10-26T09:46:24;7.65;;;5.70;;
7997;SDS011;4044;49.814;7.828;2022-10-26T09:48:58;9.77;;;5.38;;
7997;SDS011;4044;49.814;7.828;2022-10-26T09:51:29;7.07;;;4.95;;
7997;SDS011;4044;49.814;7.828;2022-10-26T09:53:55;7.60;;;4.38;;
7997;SDS011;4044;49.814;7.828;2022-10-26T09:56:24;10.02;;;4.97;;
7997;SDS011;4044;49.814;7.828;2022-10-26T09:58:53;7.72;;;5.10;;
7997;SDS011;4044;49.814;7.828;2022-10-26T10:01:27;6.28;;;4.95;;
7997;SDS011;4044;49.814;7.828;2022-10-26T10:06:37;8.13;;;4.97;;
7997;SDS011;4044;49.814;7.828;2022-10-26T10:11:38;4.93;;;4.43;;
7997;SDS011;4044;49.814;7.828;2022-10-26T10:14:05;6.90;;;4.70;;
7997;SDS011;4044;49.814;7.828;2022-10-26T10:16:33;6.45;;;4.80;;
7997;SDS011;4044;49.814;7.828;2022-10-26T10:18:59;8.18;;;4.57;;
7997;SDS011;4044;49.814;7.828;2022-10-26T10:21:35;8.13;;;4.22;;
7997;SDS011;4044;49.814;7.828;2022-10-26T10:24:03;7.45;;;4.40;;
7997;SDS011;4044;49.814;7.828;2022-10-26T10:29:33;6.32;;;3.63;;
7997;SDS011;4044;49.814;7.828;2022-10-26T10:32:04;5.45;;;3.85;;
7997;SDS011;4044;49.814;7.828;2022-10-26T10:34:31;9.43;;;3.67;;
7997;SDS011;4044;49.814;7.828;2022-10-26T10:36:57;4.18;;;3.15;;
7997;SDS011;4044;49.814;7.828;2022-10-26T10:39:28;4.45;;;3.28;;
7997;SDS011;4044;49.814;7.828;2022-10-26T10:41:59;5.85;;;4.00;;
7997;SDS011;4044;49.814;7.828;2022-10-26T10:44:27;9.07;;;3.40;;
7997;SDS011;4044;49.814;7.828;2022-10-26T10:47:02;8.45;;;3.22;;
7997;SDS011;4044;49.814;7.828;2022-10-26T10:49:28;5.65;;;3.45;;
7997;SDS011;4044;49.814;7.828;2022-10-26T10:51:55;9.07;;;3.90;;
7997;SDS011;4044;49.814;7.828;2022-10-26T10:56:56;6.00;;;3.47;;
7997;SDS011;4044;49.814;7.828;2022-10-26T10:59:42;3.33;;;2.85;;
7997;SDS011;4044;49.814;7.828;2022-10-26T11:08:07;6.93;;;2.50;;
7997;SDS011;4044;49.814;7.828;2022-10-26T11:10:57;5.20;;;2.72;;
7997;SDS011;4044;49.814;7.828;2022-10-26T11:13:30;6.05;;;2.35;;
7997;SDS011;4044;49.814;7.828;2022-10-26T11:16:01;8.15;;;2.40;;
7997;SDS011;4044;49.814;7.828;2022-10-26T11:19:03;4.90;;;2.30;;
7997;SDS011;4044;49.814;7.828;2022-10-26T11:21:39;3.47;;;2.00;;
7997;SDS011;4044;49.814;7.828;2022-10-26T11:24:17;3.60;;;2.42;;
7997;SDS011;4044;49.814;7.828;2022-10-26T11:26:50;4.30;;;2.20;;
7997;SDS011;4044;49.814;7.828;2022-10-26T11:29:22;3.47;;;1.95;;
7997;SDS011;4044;49.814;7.828;2022-10-26T11:32:21;5.38;;;2.45;;
7997;SDS011;4044;49.814;7.828;2022-10-26T11:34:57;5.63;;;2.40;;
7997;SDS011;4044;49.814;7.828;2022-10-26T11:43:24;4.75;;;2.13;;
7997;SDS011;4044;49.814;7.828;2022-10-26T11:45:58;5.55;;;2.35;;
7997;SDS011;4044;49.814;7.828;2022-10-26T11:53:57;5.18;;;2.42;;
7997;SDS011;4044;49.814;7.828;2022-10-26T11:56:29;4.43;;;2.17;;
7997;SDS011;4044;49.814;7.828;2022-10-26T11:58:58;3.20;;;2.15;;
7997;SDS011;4044;49.814;7.828;2022-10-26T12:01:24;4.45;;;2.10;;
7997;SDS011;4044;49.814;7.828;2022-10-26T12:03:51;3.05;;;2.10;;
7997;SDS011;4044;49.814;7.828;2022-10-26T12:06:22;5.50;;;2.22;;
7997;SDS011;4044;49.814;7.828;2022-10-26T12:14:14;5.35;;;2.53;;
7997;SDS011;4044;49.814;7.828;2022-10-26T12:17:15;4.82;;;2.28;;
7997;SDS011;4044;49.814;7.828;2022-10-26T12:22:18;4.30;;;2.20;;
7997;SDS011;4044;49.814;7.828;2022-10-26T12:25:05;3.28;;;2.13;;
7997;SDS011;4044;49.814;7.828;2022-10-26T12:30:13;3.45;;;1.92;;
7997;SDS011;4044;49.814;7.828;2022-10-26T12:40:48;2.22;;;2.00;;
7997;SDS011;4044;49.814;7.828;2022-10-26T12:43:35;6.10;;;2.03;;
7997;SDS011;4044;49.814;7.828;2022-10-26T12:48:41;3.45;;;1.75;;
7997;SDS011;4044;49.814;7.828;2022-10-26T12:56:55;4.25;;;2.20;;
7997;SDS011;4044;49.814;7.828;2022-10-26T13:07:35;4.15;;;1.83;;
7997;SDS011;4044;49.814;7.828;2022-10-26T13:10:16;4.40;;;2.10;;
7997;SDS011;4044;49.814;7.828;2022-10-26T13:12:49;2.80;;;2.17;;
7997;SDS011;4044;49.814;7.828;2022-10-26T13:15:27;3.78;;;2.20;;
7997;SDS011;4044;49.814;7.828;2022-10-26T13:17:59;3.97;;;1.90;;
7997;SDS011;4044;49.814;7.828;2022-10-26T13:20:51;3.40;;;1.73;;
7997;SDS011;4044;49.814;7.828;2022-10-26T13:23:24;4.95;;;2.15;;
7997;SDS011;4044;49.814;7.828;2022-10-26T13:26:02;4.20;;;1.92;;
7997;SDS011;4044;49.814;7.828;2022-10-26T13:28:42;3.78;;;1.80;;
7997;SDS011;4044;49.814;7.828;2022-10-26T13:33:49;2.97;;;1.90;;
7997;SDS011;4044;49.814;7.828;2022-10-26T13:36:31;4.22;;;1.85;;
7997;SDS011;4044;49.814;7.828;2022-10-26T13:39:01;2.30;;;1.77;;
7997;SDS011;4044;49.814;7.828;2022-10-26T13:41:35;3.00;;;1.55;;
7997;SDS011;4044;49.814;7.828;2022-10-26T13:44:09;4.53;;;1.90;;
7997;SDS011;4044;49.814;7.828;2022-10-26T13:46:45;5.65;;;1.80;;
7997;SDS011;4044;49.814;7.828;2022-10-26T13:49:18;4.78;;;2.03;;
7997;SDS011;4044;49.814;7.828;2022-10-26T13:52:00;2.13;;;1.60;;
7997;SDS011;4044;49.814;7.828;2022-10-26T13:54:34;3.58;;;1.55;;
7997;SDS011;4044;49.814;7.828;2022-10-26T13:57:03;3.00;;;1.88;;
7997;SDS011;4044;49.814;7.828;2022-10-26T13:59:49;3.22;;;1.60;;
7997;SDS011;4044;49.814;7.828;2022-10-26T14:02:26;5.53;;;1.90;;
7997;SDS011;4044;49.814;7.828;2022-10-26T14:05:04;4.07;;;1.58;;
7997;SDS011;4044;49.814;7.828;2022-10-26T14:07:33;2.85;;;1.67;;
7997;SDS011;4044;49.814;7.828;2022-10-26T14:10:02;1.67;;;1.58;;
7997;SDS011;4044;49.814;7.828;2022-10-26T14:12:28;4.28;;;1.80;;
7997;SDS011;4044;49.814;7.828;2022-10-26T14:15:02;1.60;;;1.50;;
7997;SDS011;4044;49.814;7.828;2022-10-26T14:17:31;2.70;;;1.60;;
7997;SDS011;4044;49.814;7.828;2022-10-26T14:19:57;2.40;;;1.63;;
7997;SDS011;4044;49.814;7.828;2022-10-26T14:22:24;2.92;;;1.95;;
7997;SDS011;4044;49.814;7.828;2022-10-26T14:24:52;4.88;;;1.65;;
7997;SDS011;4044;49.814;7.828;2022-10-26T14:27:21;2.88;;;1.50;;
7997;SDS011;4044;49.814;7.828;2022-10-26T14:29:52;2.60;;;1.45;;
7997;SDS011;4044;49.814;7.828;2022-10-26T14:32:24;1.75;;;1.60;;
7997;SDS011;4044;49.814;7.828;2022-10-26T14:34:51;2.90;;;1.70;;
7997;SDS011;4044;49.814;7.828;2022-10-26T14:37:23;1.92;;;1.45;;
7997;SDS011;4044;49.814;7.828;2022-10-26T14:39:59;4.03;;;1.70;;
7997;SDS011;4044;49.814;7.828;2022-10-26T14:42:26;5.72;;;1.83;;
7997;SDS011;4044;49.814;7.828;2022-10-26T14:44:55;4.03;;;1.67;;
7997;SDS011;4044;49.814;7.828;2022-10-26T14:47:23;4.15;;;1.63;;
7997;SDS011;4044;49.814;7.828;2022-10-26T14:49:59;4.07;;;1.67;;
7997;SDS011;4044;49.814;7.828;2022-10-26T14:52:32;2.67;;;1.67;;
7997;SDS011;4044;49.814;7.828;2022-10-26T14:55:01;2.03;;;1.58;;
7997;SDS011;4044;49.814;7.828;2022-10-26T14:57:29;2.15;;;1.58;;
7997;SDS011;4044;49.814;7.828;2022-10-26T15:00:00;3.38;;;1.40;;
7997;SDS011;4044;49.814;7.828;2022-10-26T15:02:28;3.58;;;1.70;;
7997;SDS011;4044;49.814;7.828;2022-10-26T15:05:02;3.47;;;1.58;;
7997;SDS011;4044;49.814;7.828;2022-10-26T15:07:40;4.10;;;1.58;;
7997;SDS011;4044;49.814;7.828;2022-10-26T15:13:08;2.92;;;1.52;;
7997;SDS011;4044;49.814;7.828;2022-10-26T15:15:43;1.48;;;1.20;;
7997;SDS011;4044;49.814;7.828;2022-10-26T15:18:16;4.15;;;1.80;;
7997;SDS011;4044;49.814;7.828;2022-10-26T15:20:49;3.38;;;1.60;;
7997;SDS011;4044;49.814;7.828;2022-10-26T15:23:15;1.55;;;1.40;;
7997;SDS011;4044;49.814;7.828;2022-10-26T15:25:52;4.03;;;1.60;;
7997;SDS011;4044;49.814;7.828;2022-10-26T15:28:21;3.92;;;1.75;;
7997;SDS011;4044;49.814;7.828;2022-10-26T15:33:36;3.55;;;1.42;;
7997;SDS011;4044;49.814;7.828;2022-10-26T15:38:31;1.88;;;1.35;;
7997;SDS011;4044;49.814;7.828;2022-10-26T15:40:57;2.45;;;1.30;;
7997;SDS011;4044;49.814;7.828;2022-10-26T15:43:23;1.52;;;1.40;;
7997;SDS011;4044;49.814;7.828;2022-10-26T15:45:48;3.40;;;1.63;;
7997;SDS011;4044;49.814;7.828;2022-10-26T15:48:17;1.92;;;1.38;;
7997;SDS011;4044;49.814;7.828;2022-10-26T15:50:47;2.60;;;1.90;;
7997;SDS011;4044;49.814;7.828;2022-10-26T15:53:17;2.08;;;1.70;;
7997;SDS011;4044;49.814;7.828;2022-10-26T15:55:45;2.63;;;1.27;;
7997;SDS011;4044;49.814;7.828;2022-10-26T15:58:12;5.05;;;1.50;;
7997;SDS011;4044;49.814;7.828;2022-10-26T16:00:38;5.95;;;1.85;;
7997;SDS011;4044;49.814;7.828;2022-10-26T16:03:04;1.55;;;1.38;;
7997;SDS011;4044;49.814;7.828;2022-10-26T16:05:29;3.25;;;1.60;;
7997;SDS011;4044;49.814;7.828;2022-10-26T16:07:55;3.67;;;1.65;;
7997;SDS011;4044;49.814;7.828;2022-10-26T16:10:21;2.20;;;1.40;;
7997;SDS011;4044;49.814;7.828;2022-10-26T16:12:49;2.60;;;1.77;;
7997;SDS011;4044;49.814;7.828;2022-10-26T16:15:16;4.82;;;1.60;;
7997;SDS011;4044;49.814;7.828;2022-10-26T16:17:44;3.08;;;1.63;;
7997;SDS011;4044;49.814;7.828;2022-10-26T16:20:12;1.65;;;1.55;;
7997;SDS011;4044;49.814;7.828;2022-10-26T16:22:40;4.15;;;1.70;;
7997;SDS011;4044;49.814;7.828;2022-10-26T16:25:10;2.50;;;1.63;;
7997;SDS011;4044;49.814;7.828;2022-10-26T16:27:37;3.75;;;1.80;;
7997;SDS011;4044;49.814;7.828;2022-10-26T16:30:03;3.17;;;1.90;;
7997;SDS011;4044;49.814;7.828;2022-10-26T16:32:28;5.50;;;2.05;;
7997;SDS011;4044;49.814;7.828;2022-10-26T16:34:54;3.70;;;1.92;;
7997;SDS011;4044;49.814;7.828;2022-10-26T16:37:19;4.90;;;1.80;;
7997;SDS011;4044;49.814;7.828;2022-10-26T16:39:45;4.03;;;1.88;;
7997;SDS011;4044;49.814;7.828;2022-10-26T16:42:10;2.28;;;1.60;;
7997;SDS011;4044;49.814;7.828;2022-10-26T16:44:36;3.60;;;1.80;;
7997;SDS011;4044;49.814;7.828;2022-10-26T16:47:02;5.68;;;1.85;;
7997;SDS011;4044;49.814;7.828;2022-10-26T16:49:27;2.75;;;1.90;;
7997;SDS011;4044;49.814;7.828;2022-10-26T16:51:53;4.65;;;1.90;;
7997;SDS011;4044;49.814;7.828;2022-10-26T16:54:19;2.15;;;1.90;;
7997;SDS011;4044;49.814;7.828;2022-10-26T16:56:45;2.85;;;1.90;;
7997;SDS011;4044;49.814;7.828;2022-10-26T16:59:10;5.85;;;2.10;;
7997;SDS011;4044;49.814;7.828;2022-10-26T17:01:36;7.88;;;2.50;;
7997;SDS011;4044;49.814;7.828;2022-10-26T17:04:01;4.13;;;2.97;;
7997;SDS011;4044;49.814;7.828;2022-10-26T17:06:27;3.97;;;3.13;;
7997;SDS011;4044;49.814;7.828;2022-10-26T17:08:53;6.82;;;3.08;;
7997;SDS011;4044;49.814;7.828;2022-10-26T17:11:19;2.88;;;2.67;;
7997;SDS011;4044;49.814;7.828;2022-10-26T17:13:45;5.18;;;3.40;;
7997;SDS011;4044;49.814;7.828;2022-10-26T17:16:16;7.20;;;4.30;;
7997;SDS011;4044;49.814;7.828;2022-10-26T17:18:43;6.28;;;3.28;;
7997;SDS011;4044;49.814;7.828;2022-10-26T17:21:11;4.50;;;2.78;;
7997;SDS011;4044;49.814;7.828;2022-10-26T17:23:37;4.00;;;2.97;;
7997;SDS011;4044;49.814;7.828;2022-10-26T17:26:04;4.70;;;4.15;;
7997;SDS011;4044;49.814;7.828;2022-10-26T17:28:31;6.18;;;4.93;;
7997;SDS011;4044;49.814;7.828;2022-10-26T17:33:53;15.27;;;10.88;;
7997;SDS011;4044;49.814;7.828;2022-10-26T17:36:21;10.35;;;5.63;;
7997;SDS011;4044;49.814;7.828;2022-10-26T17:38:47;9.45;;;5.18;;